sensor_id;sensor_type;location;lat;lon;timestamp;pressure;altitude;pressure_sealevel;temperature;humidity
30636;BME280;17400;52.392;9.750;2022-11-12T00:01:09;102539.28;;;11.02;99.85
30636;BME280;17400;52.392;9.750;2022-11-12T00:03:37;102537.84;;;10.98;100.00
30636;BME280;17400;52.392;9.750;2022-11-12T00:06:04;102533.47;;;10.97;100.00
30636;BME280;17400;52.392;9.750;2022-11-12T00:08:34;102542.19;;;10.91;100.00
30636;BME280;17400;52.392;9.750;2022-11-12T00:11:02;102537.50;;;10.93;100.00
30636;BME280;17400;52.392;9.750;2022-11-12T00:13:30;102541.22;;;10.92;100.00
30636;BME280;17400;52.392;9.750;2022-11-12T00:15:58;102536.78;;;10.91;100.00
30636;BME280;17400;52.392;9.750;2022-11-12T00:18:26;102541.38;;;10.90;100.00
30636;BME280;17400;52.392;9.750;2022-11-12T00:20:54;102543.81;;;11.02;99.78
30636;BME280;17400;52.392;9.750;2022-11-12T00:23:22;102549.19;;;11.11;99.29
30636;BME280;17400;52.392;9.750;2022-11-12T00:25:58;102552.19;;;11.08;98.90
30636;BME280;17400;52.392;9.750;2022-11-12T00:28:26;102546.38;;;11.03;98.56
30636;BME280;17400;52.392;9.750;2022-11-12T00:31:06;102551.13;;;11.01;98.60
30636;BME280;17400;52.392;9.750;2022-11-12T00:33:33;102552.44;;;10.97;99.27
30636;BME280;17400;52.392;9.750;2022-11-12T00:36:01;102546.31;;;10.95;99.51
30636;BME280;17400;52.392;9.750;2022-11-12T00:38:29;102546.47;;;10.93;99.41
30636;BME280;17400;52.392;9.750;2022-11-12T00:40:59;102554.03;;;10.90;99.61
30636;BME280;17400;52.392;9.750;2022-11-12T00:43:27;102561.94;;;10.83;100.00
30636;BME280;17400;52.392;9.750;2022-11-12T00:45:55;102562.25;;;10.80;100.00
30636;BME280;17400;52.392;9.750;2022-11-12T00:48:23;102558.16;;;10.76;100.00
30636;BME280;17400;52.392;9.750;2022-11-12T00:50:58;102560.16;;;10.74;100.00
30636;BME280;17400;52.392;9.750;2022-11-12T00:53:26;102556.34;;;10.66;100.00
30636;BME280;17400;52.392;9.750;2022-11-12T00:56:00;102559.22;;;10.65;100.00
30636;BME280;17400;52.392;9.750;2022-11-12T00:58:28;102564.25;;;10.60;100.00
30636;BME280;17400;52.392;9.750;2022-11-12T01:00:56;102558.09;;;10.58;100.00
30636;BME280;17400;52.392;9.750;2022-11-12T01:03:26;102567.53;;;10.54;100.00
30636;BME280;17400;52.392;9.750;2022-11-12T01:06:00;102564.53;;;10.57;100.00
30636;BME280;17400;52.392;9.750;2022-11-12T01:08:28;102561.97;;;10.55;100.00
30636;BME280;17400;52.392;9.750;2022-11-12T01:11:05;102564.84;;;10.54;100.00
30636;BME280;17400;52.392;9.750;2022-11-12T01:13:33;102563.44;;;10.49;100.00
30636;BME280;17400;52.392;9.750;2022-11-12T01:16:10;102562.19;;;10.44;100.00
30636;BME280;17400;52.392;9.750;2022-11-12T01:18:38;102554.34;;;10.41;100.00
30636;BME280;17400;52.392;9.750;2022-11-12T01:21:07;102552.53;;;10.41;100.00
30636;BME280;17400;52.392;9.750;2022-11-12T01:23:38;102556.09;;;10.32;100.00
30636;BME280;17400;52.392;9.750;2022-11-12T01:26:09;102557.09;;;10.31;100.00
30636;BME280;17400;52.392;9.750;2022-11-12T01:28:37;102556.22;;;10.30;100.00
30636;BME280;17400;52.392;9.750;2022-11-12T01:31:10;102561.09;;;10.27;100.00
30636;BME280;17400;52.392;9.750;2022-11-12T01:33:38;102562.59;;;10.11;100.00
30636;BME280;17400;52.392;9.750;2022-11-12T01:36:06;102563.16;;;10.05;100.00
30636;BME280;17400;52.392;9.750;2022-11-12T01:38:35;102566.03;;;10.04;100.00
30636;BME280;17400;52.392;9.750;2022-11-12T01:41:03;102565.72;;;10.07;100.00
30636;BME280;17400;52.392;9.750;2022-11-12T01:43:33;102572.84;;;10.08;100.00
30636;BME280;17400;52.392;9.750;2022-11-12T01:46:03;102570.84;;;10.10;100.00
30636;BME280;17400;52.392;9.750;2022-11-12T01:48:35;102568.00;;;10.11;100.00
30636;BME280;17400;52.392;9.750;2022-11-12T01:51:04;102570.56;;;10.13;100.00
30636;BME280;17400;52.392;9.750;2022-11-12T01:53:37;102576.84;;;10.13;100.00
30636;BME280;17400;52.392;9.750;2022-11-12T01:56:07;102580.22;;;10.15;100.00
30636;BME280;17400;52.392;9.750;2022-11-12T01:58:37;102583.66;;;10.17;100.00
30636;BME280;17400;52.392;9.750;2022-11-12T02:01:05;102580.53;;;10.12;100.00
30636;BME280;17400;52.392;9.750;2022-11-12T02:03:33;102579.38;;;10.15;100.00
30636;BME280;17400;52.392;9.750;2022-11-12T02:06:03;102572.53;;;10.21;100.00
30636;BME280;17400;52.392;9.750;2022-11-12T02:08:34;102575.66;;;10.16;100.00
30636;BME280;17400;52.392;9.750;2022-11-12T02:11:11;102569.25;;;10.17;100.00
30636;BME280;17400;52.392;9.750;2022-11-12T02:13:41;102577.53;;;10.15;100.00
30636;BME280;17400;52.392;9.750;2022-11-12T02:16:24;102575.13;;;10.12;100.00
30636;BME280;17400;52.392;9.750;2022-11-12T02:18:53;102570.25;;;10.16;100.00
30636;BME280;17400;52.392;9.750;2022-11-12T02:21:22;102569.72;;;10.12;100.00
30636;BME280;17400;52.392;9.750;2022-11-12T02:23:58;102575.41;;;10.09;100.00
30636;BME280;17400;52.392;9.750;2022-11-12T02:26:29;102575.41;;;10.09;100.00
30636;BME280;17400;52.392;9.750;2022-11-12T02:28:58;102579.81;;;10.10;100.00
30636;BME280;17400;52.392;9.750;2022-11-12T02:31:25;102566.28;;;10.10;100.00
30636;BME280;17400;52.392;9.750;2022-11-12T02:33:53;102570.28;;;10.06;100.00
30636;BME280;17400;52.392;9.750;2022-11-12T02:36:23;102566.59;;;10.07;100.00
30636;BME280;17400;52.392;9.750;2022-11-12T02:38:51;102568.88;;;10.02;100.00
30636;BME280;17400;52.392;9.750;2022-11-12T02:41:19;102565.47;;;10.00;100.00
30636;BME280;17400;52.392;9.750;2022-11-12T02:43:46;102571.75;;;10.00;100.00
30636;BME280;17400;52.392;9.750;2022-11-12T02:46:14;102568.88;;;10.02;100.00
30636;BME280;17400;52.392;9.750;2022-11-12T02:48:43;102576.28;;;10.00;100.00
30636;BME280;17400;52.392;9.750;2022-11-12T02:51:11;102573.31;;;10.03;100.00
30636;BME280;17400;52.392;9.750;2022-11-12T02:53:40;102576.00;;;10.03;100.00
30636;BME280;17400;52.392;9.750;2022-11-12T02:56:08;102576.84;;;10.04;100.00
30636;BME280;17400;52.392;9.750;2022-11-12T02:58:35;102576.00;;;10.03;100.00
30636;BME280;17400;52.392;9.750;2022-11-12T03:01:03;102565.72;;;10.07;100.00
30636;BME280;17400;52.392;9.750;2022-11-12T03:03:31;102576.00;;;10.03;100.00
30636;BME280;17400;52.392;9.750;2022-11-12T03:06:00;102570.03;;;9.99;100.00
30636;BME280;17400;52.392;9.750;2022-11-12T03:08:28;102566.03;;;10.04;100.00
30636;BME280;17400;52.392;9.750;2022-11-12T03:10:57;102564.88;;;10.06;100.00
30636;BME280;17400;52.392;9.750;2022-11-12T03:13:25;102566.03;;;10.04;100.00
30636;BME280;17400;52.392;9.750;2022-11-12T03:15:58;102560.91;;;10.00;100.00
30636;BME280;17400;52.392;9.750;2022-11-12T03:18:25;102554.63;;;10.00;100.00
30636;BME280;17400;52.392;9.750;2022-11-12T03:20:54;102558.06;;;10.02;100.00
30636;BME280;17400;52.392;9.750;2022-11-12T03:23:22;102566.34;;;10.00;100.00
30636;BME280;17400;52.392;9.750;2022-11-12T03:25:50;102559.78;;;10.03;100.00
30636;BME280;17400;52.392;9.750;2022-11-12T03:28:18;102567.03;;;10.03;100.00
30636;BME280;17400;52.392;9.750;2022-11-12T03:30:46;102564.63;;;9.99;100.00
30636;BME280;17400;52.392;9.750;2022-11-12T03:33:14;102581.41;;;10.03;100.00
30636;BME280;17400;52.392;9.750;2022-11-12T03:35:43;102572.59;;;10.01;100.00
30636;BME280;17400;52.392;9.750;2022-11-12T03:38:11;102574.06;;;9.86;100.00
30636;BME280;17400;52.392;9.750;2022-11-12T03:40:39;102568.25;;;9.80;100.00
30636;BME280;17400;52.392;9.750;2022-11-12T03:43:07;102569.81;;;9.73;100.00
30636;BME280;17400;52.392;9.750;2022-11-12T03:45:36;102577.50;;;9.68;100.00
30636;BME280;17400;52.392;9.750;2022-11-12T03:48:04;102568.97;;;9.73;100.00
30636;BME280;17400;52.392;9.750;2022-11-12T03:50:32;102565.69;;;9.69;100.00
30636;BME280;17400;52.392;9.750;2022-11-12T03:53:00;102560.44;;;9.67;100.00
30636;BME280;17400;52.392;9.750;2022-11-12T03:55:28;102558.03;;;9.64;100.00
30636;BME280;17400;52.392;9.750;2022-11-12T03:57:57;102558.16;;;9.63;100.00
30636;BME280;17400;52.392;9.750;2022-11-12T04:00:27;102564.97;;;9.67;100.00
30636;BME280;17400;52.392;9.750;2022-11-12T04:02:57;102563.84;;;9.70;100.00
30636;BME280;17400;52.392;9.750;2022-11-12T04:05:25;102557.03;;;9.65;100.00
30636;BME280;17400;52.392;9.750;2022-11-12T04:08:13;102557.63;;;9.59;100.00
30636;BME280;17400;52.392;9.750;2022-11-12T04:10:59;102557.19;;;9.54;100.00
30636;BME280;17400;52.392;9.750;2022-11-12T04:13:27;102561.47;;;9.57;100.00
30636;BME280;17400;52.392;9.750;2022-11-12T04:15:56;102564.44;;;9.54;100.00
30636;BME280;17400;52.392;9.750;2022-11-12T04:18:44;102562.31;;;9.57;100.00
30636;BME280;17400;52.392;9.750;2022-11-12T04:21:32;102559.91;;;9.54;100.00
30636;BME280;17400;52.392;9.750;2022-11-12T04:24:23;102559.63;;;9.47;100.00
30636;BME280;17400;52.392;9.750;2022-11-12T04:27:11;102564.03;;;9.48;100.00
30636;BME280;17400;52.392;9.750;2022-11-12T04:29:39;102557.34;;;9.53;100.00
30636;BME280;17400;52.392;9.750;2022-11-12T04:32:25;102557.09;;;9.46;100.00
30636;BME280;17400;52.392;9.750;2022-11-12T04:34:54;102555.91;;;9.48;100.00
30636;BME280;17400;52.392;9.750;2022-11-12T04:37:24;102556.94;;;9.47;100.00
30636;BME280;17400;52.392;9.750;2022-11-12T04:39:52;102557.78;;;9.48;100.00
30636;BME280;17400;52.392;9.750;2022-11-12T04:42:20;102552.38;;;9.48;100.00
30636;BME280;17400;52.392;9.750;2022-11-12T04:45:07;102561.31;;;9.48;100.00
30636;BME280;17400;52.392;9.750;2022-11-12T04:47:37;102556.22;;;9.45;100.00
30636;BME280;17400;52.392;9.750;2022-11-12T04:50:11;102553.94;;;9.41;100.00
30636;BME280;17400;52.392;9.750;2022-11-12T04:52:40;102555.38;;;9.35;100.00
30636;BME280;17400;52.392;9.750;2022-11-12T04:55:08;102554.66;;;9.33;100.00
30636;BME280;17400;52.392;9.750;2022-11-12T04:57:37;102546.97;;;9.28;100.00
30636;BME280;17400;52.392;9.750;2022-11-12T05:00:06;102552.22;;;9.30;100.00
30636;BME280;17400;52.392;9.750;2022-11-12T05:02:34;102554.66;;;9.33;100.00
30636;BME280;17400;52.392;9.750;2022-11-12T05:05:02;102555.94;;;9.29;100.00
30636;BME280;17400;52.392;9.750;2022-11-12T05:07:32;102555.38;;;9.35;100.00
30636;BME280;17400;52.392;9.750;2022-11-12T05:10:00;102549.97;;;9.35;100.00
30636;BME280;17400;52.392;9.750;2022-11-12T05:12:27;102553.69;;;9.34;100.00
30636;BME280;17400;52.392;9.750;2022-11-12T05:14:55;102551.81;;;9.34;100.00
30636;BME280;17400;52.392;9.750;2022-11-12T05:17:23;102559.94;;;9.34;100.00
30636;BME280;17400;52.392;9.750;2022-11-12T05:19:50;102555.22;;;9.27;100.00
30636;BME280;17400;52.392;9.750;2022-11-12T05:22:18;102557.53;;;9.31;100.00
30636;BME280;17400;52.392;9.750;2022-11-12T05:25:08;102553.94;;;9.31;100.00
30636;BME280;17400;52.392;9.750;2022-11-12T05:27:36;102548.69;;;9.29;100.00
30636;BME280;17400;52.392;9.750;2022-11-12T05:30:04;102557.38;;;9.33;100.00
30636;BME280;17400;52.392;9.750;2022-11-12T05:32:33;102561.78;;;9.34;100.00
30636;BME280;17400;52.392;9.750;2022-11-12T05:35:00;102557.78;;;9.28;100.00
30636;BME280;17400;52.392;9.750;2022-11-12T05:37:28;102551.69;;;9.26;100.00
30636;BME280;17400;52.392;9.750;2022-11-12T05:39:56;102553.53;;;9.26;100.00
30636;BME280;17400;52.392;9.750;2022-11-12T05:42:25;102553.66;;;9.24;100.00
30636;BME280;17400;52.392;9.750;2022-11-12T05:44:53;102559.22;;;9.23;100.00
30636;BME280;17400;52.392;9.750;2022-11-12T05:47:20;102561.34;;;9.09;100.00
30636;BME280;17400;52.392;9.750;2022-11-12T05:49:48;102562.19;;;9.10;100.00
30636;BME280;17400;52.392;9.750;2022-11-12T05:52:16;102562.63;;;9.15;100.00
30636;BME280;17400;52.392;9.750;2022-11-12T05:54:43;102557.06;;;9.16;100.00
30636;BME280;17400;52.392;9.750;2022-11-12T05:57:11;102556.09;;;9.08;100.00
30636;BME280;17400;52.392;9.750;2022-11-12T05:59:40;102553.41;;;9.08;100.00
30636;BME280;17400;52.392;9.750;2022-11-12T06:02:07;102561.34;;;9.09;100.00
30636;BME280;17400;52.392;9.750;2022-11-12T06:04:35;102554.97;;;9.10;100.00
30636;BME280;17400;52.392;9.750;2022-11-12T06:07:03;102563.47;;;9.06;100.00
30636;BME280;17400;52.392;9.750;2022-11-12T06:09:31;102558.53;;;9.01;100.00
30636;BME280;17400;52.392;9.750;2022-11-12T06:11:59;102556.50;;;9.03;100.00
30636;BME280;17400;52.392;9.750;2022-11-12T06:14:27;102550.25;;;9.03;100.00
30636;BME280;17400;52.392;9.750;2022-11-12T06:16:56;102559.34;;;9.02;100.00
30636;BME280;17400;52.392;9.750;2022-11-12T06:19:24;102553.81;;;9.03;100.00
30636;BME280;17400;52.392;9.750;2022-11-12T06:21:52;102556.66;;;9.02;100.00
30636;BME280;17400;52.392;9.750;2022-11-12T06:24:19;102560.78;;;9.06;100.00
30636;BME280;17400;52.392;9.750;2022-11-12T06:26:47;102556.50;;;9.03;100.00
30636;BME280;17400;52.392;9.750;2022-11-12T06:29:15;102557.66;;;9.00;100.00
30636;BME280;17400;52.392;9.750;2022-11-12T06:31:43;102560.50;;;8.99;100.00
30636;BME280;17400;52.392;9.750;2022-11-12T06:34:12;102560.50;;;8.99;100.00
30636;BME280;17400;52.392;9.750;2022-11-12T06:36:40;102560.34;;;9.00;100.00
30636;BME280;17400;52.392;9.750;2022-11-12T06:39:09;102566.63;;;9.01;100.00
30636;BME280;17400;52.392;9.750;2022-11-12T06:41:37;102562.22;;;9.00;100.00
30636;BME280;17400;52.392;9.750;2022-11-12T06:44:05;102571.84;;;8.93;100.00
30636;BME280;17400;52.392;9.750;2022-11-12T06:46:33;102578.97;;;8.84;100.00
30636;BME280;17400;52.392;9.750;2022-11-12T06:49:01;102579.81;;;8.84;100.00
30636;BME280;17400;52.392;9.750;2022-11-12T06:51:30;102581.94;;;8.81;100.00
30636;BME280;17400;52.392;9.750;2022-11-12T06:53:57;102575.81;;;8.79;100.00
30636;BME280;17400;52.392;9.750;2022-11-12T06:56:25;102574.69;;;8.81;100.00
30636;BME280;17400;52.392;9.750;2022-11-12T06:58:53;102575.09;;;8.77;100.00
30636;BME280;17400;52.392;9.750;2022-11-12T07:01:20;102585.34;;;8.83;100.00
30636;BME280;17400;52.392;9.750;2022-11-12T07:03:52;102591.06;;;8.90;100.00
30636;BME280;17400;52.392;9.750;2022-11-12T07:06:21;102582.66;;;8.93;100.00
30636;BME280;17400;52.392;9.750;2022-11-12T07:08:50;102582.66;;;8.83;100.00
30636;BME280;17400;52.392;9.750;2022-11-12T07:11:18;102588.91;;;8.83;100.00
30636;BME280;17400;52.392;9.750;2022-11-12T07:13:47;102597.44;;;8.79;100.00
30636;BME280;17400;52.392;9.750;2022-11-12T07:16:16;102604.41;;;8.81;100.00
30636;BME280;17400;52.392;9.750;2022-11-12T07:18:45;102606.53;;;8.88;100.00
30636;BME280;17400;52.392;9.750;2022-11-12T07:21:16;102609.97;;;8.90;100.00
30636;BME280;17400;52.392;9.750;2022-11-12T07:23:44;102600.44;;;8.86;100.00
30636;BME280;17400;52.392;9.750;2022-11-12T07:26:15;102613.38;;;8.92;100.00
30636;BME280;17400;52.392;9.750;2022-11-12T07:28:43;102623.31;;;8.91;100.00
30636;BME280;17400;52.392;9.750;2022-11-12T07:31:12;102623.75;;;8.96;100.00
30636;BME280;17400;52.392;9.750;2022-11-12T07:33:40;102615.94;;;9.03;100.00
30636;BME280;17400;52.392;9.750;2022-11-12T07:36:10;102618.25;;;9.08;100.00
30636;BME280;17400;52.392;9.750;2022-11-12T07:38:40;102615.97;;;9.13;100.00
30636;BME280;17400;52.392;9.750;2022-11-12T07:41:10;102618.25;;;9.17;100.00
30636;BME280;17400;52.392;9.750;2022-11-12T07:43:42;102608.28;;;9.18;100.00
30636;BME280;17400;52.392;9.750;2022-11-12T07:46:11;102606.88;;;9.24;100.00
30636;BME280;17400;52.392;9.750;2022-11-12T07:48:40;102601.19;;;9.27;100.00
30636;BME280;17400;52.392;9.750;2022-11-12T07:51:12;102594.94;;;9.26;100.00
30636;BME280;17400;52.392;9.750;2022-11-12T07:53:42;102604.00;;;9.35;100.00
30636;BME280;17400;52.392;9.750;2022-11-12T07:56:11;102615.69;;;9.45;100.00
30636;BME280;17400;52.392;9.750;2022-11-12T07:58:47;102609.25;;;9.56;100.00
30636;BME280;17400;52.392;9.750;2022-11-12T08:01:28;102611.25;;;9.64;100.00
30636;BME280;17400;52.392;9.750;2022-11-12T08:03:56;102602.28;;;9.73;100.00
30636;BME280;17400;52.392;9.750;2022-11-12T08:06:26;102610.66;;;9.80;100.00
30636;BME280;17400;52.392;9.750;2022-11-12T08:08:55;102601.13;;;9.86;100.00
30636;BME280;17400;52.392;9.750;2022-11-12T08:11:23;102608.94;;;9.89;100.00
30636;BME280;17400;52.392;9.750;2022-11-12T08:13:52;102611.06;;;9.95;100.00
30636;BME280;17400;52.392;9.750;2022-11-12T08:16:20;102610.78;;;9.98;100.00
30636;BME280;17400;52.392;9.750;2022-11-12T08:18:48;102612.59;;;10.07;100.00
30636;BME280;17400;52.392;9.750;2022-11-12T08:21:16;102615.31;;;10.07;100.00
30636;BME280;17400;52.392;9.750;2022-11-12T08:23:45;102620.56;;;10.09;100.00
30636;BME280;17400;52.392;9.750;2022-11-12T08:26:16;102626.66;;;10.21;100.00
30636;BME280;17400;52.392;9.750;2022-11-12T08:28:44;102620.81;;;10.25;100.00
30636;BME280;17400;52.392;9.750;2022-11-12T08:31:14;102618.47;;;10.30;100.00
30636;BME280;17400;52.392;9.750;2022-11-12T08:33:43;102628.31;;;10.41;100.00
30636;BME280;17400;52.392;9.750;2022-11-12T08:36:12;102622.84;;;10.51;100.00
30636;BME280;17400;52.392;9.750;2022-11-12T08:38:40;102624.00;;;10.48;100.00
30636;BME280;17400;52.392;9.750;2022-11-12T08:41:10;102619.31;;;10.50;100.00
30636;BME280;17400;52.392;9.750;2022-11-12T08:43:39;102622.94;;;10.59;100.00
30636;BME280;17400;52.392;9.750;2022-11-12T08:46:07;102625.38;;;10.62;100.00
30636;BME280;17400;52.392;9.750;2022-11-12T08:48:36;102616.78;;;10.67;100.00
30636;BME280;17400;52.392;9.750;2022-11-12T08:51:05;102615.06;;;10.66;100.00
30636;BME280;17400;52.392;9.750;2022-11-12T08:53:33;102607.50;;;10.70;100.00
30636;BME280;17400;52.392;9.750;2022-11-12T08:56:01;102614.00;;;10.77;100.00
30636;BME280;17400;52.392;9.750;2022-11-12T08:58:29;102618.66;;;10.84;100.00
30636;BME280;17400;52.392;9.750;2022-11-12T09:01:03;102618.38;;;10.88;100.00
30636;BME280;17400;52.392;9.750;2022-11-12T09:03:31;102614.38;;;10.92;100.00
30636;BME280;17400;52.392;9.750;2022-11-12T09:06:03;102616.06;;;10.93;100.00
30636;BME280;17400;52.392;9.750;2022-11-12T09:08:33;102619.63;;;10.93;100.00
30636;BME280;17400;52.392;9.750;2022-11-12T09:11:01;102622.56;;;11.00;100.00
30636;BME280;17400;52.392;9.750;2022-11-12T09:13:29;102619.94;;;11.08;100.00
30636;BME280;17400;52.392;9.750;2022-11-12T09:16:01;102619.50;;;11.13;100.00
30636;BME280;17400;52.392;9.750;2022-11-12T09:18:30;102617.19;;;11.18;100.00
30636;BME280;17400;52.392;9.750;2022-11-12T09:21:00;102621.44;;;11.21;100.00
30636;BME280;17400;52.392;9.750;2022-11-12T09:23:29;102620.13;;;11.25;100.00
30636;BME280;17400;52.392;9.750;2022-11-12T09:25:57;102622.13;;;11.23;100.00
30636;BME280;17400;52.392;9.750;2022-11-12T09:28:25;102615.88;;;11.22;100.00
30636;BME280;17400;52.392;9.750;2022-11-12T09:30:54;102627.72;;;11.21;100.00
30636;BME280;17400;52.392;9.750;2022-11-12T09:33:25;102630.97;;;11.25;100.00
30636;BME280;17400;52.392;9.750;2022-11-12T09:35:54;102625.22;;;11.28;100.00
30636;BME280;17400;52.392;9.750;2022-11-12T09:38:22;102614.28;;;11.38;100.00
30636;BME280;17400;52.392;9.750;2022-11-12T09:41:13;102614.06;;;11.49;100.00
30636;BME280;17400;52.392;9.750;2022-11-12T09:43:47;102621.03;;;11.52;100.00
30636;BME280;17400;52.392;9.750;2022-11-12T09:46:26;102623.13;;;11.58;100.00
30636;BME280;17400;52.392;9.750;2022-11-12T09:49:01;102631.50;;;11.64;100.00
30636;BME280;17400;52.392;9.750;2022-11-12T09:51:34;102624.97;;;11.57;100.00
30636;BME280;17400;52.392;9.750;2022-11-12T09:54:09;102624.34;;;11.63;100.00
30636;BME280;17400;52.392;9.750;2022-11-12T09:56:40;102613.34;;;11.65;100.00
30636;BME280;17400;52.392;9.750;2022-11-12T09:59:10;102617.44;;;11.69;100.00
30636;BME280;17400;52.392;9.750;2022-11-12T10:01:48;102620.91;;;11.79;100.00
30636;BME280;17400;52.392;9.750;2022-11-12T10:04:30;102631.13;;;11.86;100.00
30636;BME280;17400;52.392;9.750;2022-11-12T10:07:10;102627.38;;;11.87;100.00
30636;BME280;17400;52.392;9.750;2022-11-12T10:09:46;102623.84;;;11.86;100.00
30636;BME280;17400;52.392;9.750;2022-11-12T10:12:23;102614.47;;;11.80;100.00
30636;BME280;17400;52.392;9.750;2022-11-12T10:15:28;102618.91;;;11.81;100.00
30636;BME280;17400;52.392;9.750;2022-11-12T10:18:27;102616.31;;;11.80;100.00
30636;BME280;17400;52.392;9.750;2022-11-12T10:20:58;102616.19;;;11.81;100.00
30636;BME280;17400;52.392;9.750;2022-11-12T10:23:32;102620.69;;;11.73;100.00
30636;BME280;17400;52.392;9.750;2022-11-12T10:26:10;102618.69;;;11.75;100.00
30636;BME280;17400;52.392;9.750;2022-11-12T10:28:44;102615.09;;;11.74;100.00
30636;BME280;17400;52.392;9.750;2022-11-12T10:31:13;102618.34;;;11.78;100.00
30636;BME280;17400;52.392;9.750;2022-11-12T10:33:41;102614.47;;;11.80;100.00
30636;BME280;17400;52.392;9.750;2022-11-12T10:36:19;102610.59;;;11.83;100.00
30636;BME280;17400;52.392;9.750;2022-11-12T10:38:51;102610.28;;;11.86;100.00
30636;BME280;17400;52.392;9.750;2022-11-12T10:41:22;102609.25;;;11.87;100.00
30636;BME280;17400;52.392;9.750;2022-11-12T10:43:57;102612.53;;;11.91;100.00
30636;BME280;17400;52.392;9.750;2022-11-12T10:46:28;102615.31;;;11.99;100.00
30636;BME280;17400;52.392;9.750;2022-11-12T10:48:59;102601.94;;;12.06;100.00
30636;BME280;17400;52.392;9.750;2022-11-12T10:51:30;102605.03;;;12.11;100.00
30636;BME280;17400;52.392;9.750;2022-11-12T10:53:59;102601.16;;;12.13;100.00
30636;BME280;17400;52.392;9.750;2022-11-12T10:56:45;102601.53;;;12.19;100.00
30636;BME280;17400;52.392;9.750;2022-11-12T10:59:23;102599.19;;;12.24;100.00
30636;BME280;17400;52.392;9.750;2022-11-12T11:01:56;102603.56;;;12.25;100.00
30636;BME280;17400;52.392;9.750;2022-11-12T11:04:28;102593.25;;;12.28;100.00
30636;BME280;17400;52.392;9.750;2022-11-12T11:06:59;102586.31;;;12.34;99.88
30636;BME280;17400;52.392;9.750;2022-11-12T11:09:29;102591.44;;;12.37;100.00
30636;BME280;17400;52.392;9.750;2022-11-12T11:12:00;102592.09;;;12.39;100.00
30636;BME280;17400;52.392;9.750;2022-11-12T11:14:32;102592.09;;;12.39;100.00
30636;BME280;17400;52.392;9.750;2022-11-12T11:17:04;102588.72;;;12.37;100.00
30636;BME280;17400;52.392;9.750;2022-11-12T11:19:37;102581.22;;;12.39;98.37
30636;BME280;17400;52.392;9.750;2022-11-12T11:22:14;102579.38;;;12.40;96.17
30636;BME280;17400;52.392;9.750;2022-11-12T11:24:53;102578.88;;;12.44;99.15
30636;BME280;17400;52.392;9.750;2022-11-12T11:27:28;102575.19;;;12.54;98.45
30636;BME280;17400;52.392;9.750;2022-11-12T11:30:10;102568.59;;;12.64;97.98
30636;BME280;17400;52.392;9.750;2022-11-12T11:32:54;102563.34;;;12.71;98.08
30636;BME280;17400;52.392;9.750;2022-11-12T11:35:33;102563.69;;;12.68;97.55
30636;BME280;17400;52.392;9.750;2022-11-12T11:38:30;102564.84;;;12.65;96.98
30636;BME280;17400;52.392;9.750;2022-11-12T11:41:08;102569.09;;;12.60;96.89
30636;BME280;17400;52.392;9.750;2022-11-12T11:43:47;102562.66;;;12.61;97.87
30636;BME280;17400;52.392;9.750;2022-11-12T11:46:34;102561.78;;;12.60;98.00
30636;BME280;17400;52.392;9.750;2022-11-12T11:49:28;102564.03;;;12.65;98.27
30636;BME280;17400;52.392;9.750;2022-11-12T11:52:07;102560.13;;;12.68;99.17
30636;BME280;17400;52.392;9.750;2022-11-12T11:54:58;102549.63;;;12.73;98.48
30636;BME280;17400;52.392;9.750;2022-11-12T11:57:36;102551.81;;;12.77;98.50
30636;BME280;17400;52.392;9.750;2022-11-12T12:00:12;102548.91;;;12.79;97.01
30636;BME280;17400;52.392;9.750;2022-11-12T12:02:58;102552.00;;;12.84;97.91
30636;BME280;17400;52.392;9.750;2022-11-12T12:05:40;102548.09;;;12.87;98.91
30636;BME280;17400;52.392;9.750;2022-11-12T12:08:11;102552.88;;;12.93;98.49
30636;BME280;17400;52.392;9.750;2022-11-12T12:10:50;102541.81;;;12.94;99.20
30636;BME280;17400;52.392;9.750;2022-11-12T12:13:46;102546.91;;;12.97;98.64
30636;BME280;17400;52.392;9.750;2022-11-12T12:16:31;102542.34;;;12.98;98.83
30636;BME280;17400;52.392;9.750;2022-11-12T12:19:09;102536.56;;;13.01;98.84
30636;BME280;17400;52.392;9.750;2022-11-12T12:21:40;102540.28;;;13.00;98.58
30636;BME280;17400;52.392;9.750;2022-11-12T12:24:16;102531.47;;;12.98;99.29
30636;BME280;17400;52.392;9.750;2022-11-12T12:26:47;102533.66;;;13.03;99.25
30636;BME280;17400;52.392;9.750;2022-11-12T12:29:23;102531.66;;;13.05;100.00
30636;BME280;17400;52.392;9.750;2022-11-12T12:31:56;102527.03;;;13.05;100.00
30636;BME280;17400;52.392;9.750;2022-11-12T12:34:31;102530.28;;;13.00;99.31
30636;BME280;17400;52.392;9.750;2022-11-12T12:37:04;102525.69;;;13.01;99.47
30636;BME280;17400;52.392;9.750;2022-11-12T12:39:38;102528.22;;;13.03;98.70
30636;BME280;17400;52.392;9.750;2022-11-12T12:42:17;102522.31;;;13.07;99.19
30636;BME280;17400;52.392;9.750;2022-11-12T12:44:53;102521.25;;;13.08;98.57
30636;BME280;17400;52.392;9.750;2022-11-12T12:47:35;102521.25;;;13.08;99.36
30636;BME280;17400;52.392;9.750;2022-11-12T12:50:11;102521.94;;;13.10;98.65
30636;BME280;17400;52.392;9.750;2022-11-12T12:53:00;102509.19;;;13.11;99.36
30636;BME280;17400;52.392;9.750;2022-11-12T12:55:38;102502.09;;;13.10;98.97
30636;BME280;17400;52.392;9.750;2022-11-12T12:58:18;102507.53;;;13.10;99.50
30636;BME280;17400;52.392;9.750;2022-11-12T13:00:50;102508.34;;;13.10;100.00
30636;BME280;17400;52.392;9.750;2022-11-12T13:03:47;102503.28;;;13.07;100.00
30636;BME280;17400;52.392;9.750;2022-11-12T13:06:24;102504.28;;;13.06;100.00
30636;BME280;17400;52.392;9.750;2022-11-12T13:08:56;102501.38;;;13.08;100.00